createdAt,value
2022-10-21T00:01:57.116Z,16.02
2022-10-21T00:04:24.470Z,21.88
2022-10-21T00:06:51.817Z,17.40
2022-10-21T00:09:20.479Z,24.48
2022-10-21T00:11:47.808Z,20.05
2022-10-21T00:14:15.349Z,21.02
2022-10-21T00:16:42.775Z,19.15
2022-10-21T00:19:10.117Z,20.98
2022-10-21T00:21:37.802Z,19.65
2022-10-21T00:24:05.724Z,18.83
2022-10-21T00:26:37.617Z,22.30
2022-10-21T00:29:06.089Z,19.10
2022-10-21T00:31:33.821Z,23.52
2022-10-21T00:34:01.203Z,20.17
2022-10-21T00:36:28.527Z,20.63
2022-10-21T00:38:57.708Z,20.00
2022-10-21T00:41:25.051Z,17.70
2022-10-21T00:43:59.612Z,22.70
2022-10-21T00:46:39.729Z,22.00
2022-10-21T00:49:09.186Z,27.55
2022-10-21T00:51:36.985Z,25.13
2022-10-21T00:54:05.422Z,25.85
2022-10-21T00:56:34.672Z,25.95
2022-10-21T00:59:04.933Z,22.08
2022-10-21T01:01:32.367Z,22.33
2022-10-21T01:04:01.413Z,26.48
2022-10-21T01:06:28.986Z,23.42
2022-10-21T01:08:57.566Z,22.77
2022-10-21T01:11:25.753Z,26.55
2022-10-21T01:14:19.735Z,22.13
2022-10-21T01:16:50.812Z,22.20
2022-10-21T01:19:34.264Z,25.73
2022-10-21T01:22:07.035Z,24.05
2022-10-21T01:25:00.002Z,20.77
2022-10-21T01:27:37.861Z,25.33
2022-10-21T01:30:10.698Z,24.95
2022-10-21T01:32:48.581Z,17.70
2022-10-21T01:35:21.376Z,24.48
2022-10-21T01:37:53.992Z,23.83
2022-10-21T01:40:22.661Z,22.48
2022-10-21T01:42:52.589Z,21.23
2022-10-21T01:45:23.008Z,25.52
2022-10-21T01:47:54.929Z,26.75
2022-10-21T01:50:24.428Z,20.17
2022-10-21T01:52:55.636Z,21.65
2022-10-21T01:55:24.543Z,24.08
2022-10-21T01:57:57.555Z,21.02
2022-10-21T02:03:00.663Z,24.38
2022-10-21T02:05:30.730Z,23.50
2022-10-21T02:07:58.080Z,23.33
2022-10-21T02:10:29.018Z,21.55
2022-10-21T02:12:59.779Z,21.60
2022-10-21T02:15:28.529Z,23.17
2022-10-21T02:17:57.867Z,25.90
2022-10-21T02:20:28.289Z,21.25
2022-10-21T02:22:55.713Z,21.25
2022-10-21T02:25:26.586Z,21.15
2022-10-21T02:27:54.164Z,19.35
2022-10-21T02:30:21.723Z,22.67
2022-10-21T02:32:54.802Z,22.30
2022-10-21T02:35:29.239Z,22.30
2022-10-21T02:38:01.518Z,18.30
2022-10-21T02:40:32.076Z,22.77
2022-10-21T02:43:03.092Z,22.90
2022-10-21T02:45:30.463Z,25.60
2022-10-21T02:47:57.814Z,21.60
2022-10-21T02:50:25.144Z,20.17
2022-10-21T02:52:53.805Z,21.52
2022-10-21T02:55:21.135Z,22.33
2022-10-21T02:57:48.502Z,19.60
2022-10-21T03:00:16.414Z,22.85
2022-10-21T03:02:43.727Z,22.85
2022-10-21T03:05:12.848Z,21.20
2022-10-21T03:07:40.568Z,25.48
2022-10-21T03:10:10.223Z,19.98
2022-10-21T03:12:37.626Z,23.63
2022-10-21T03:15:05.584Z,19.38
2022-10-21T03:17:32.924Z,25.80
2022-10-21T03:20:00.264Z,22.48
2022-10-21T03:22:27.646Z,22.52
2022-10-21T03:24:54.980Z,20.33
2022-10-21T03:27:23.693Z,19.83
2022-10-21T03:29:51.079Z,21.75
2022-10-21T03:32:18.406Z,24.40
2022-10-21T03:34:45.735Z,24.98
2022-10-21T03:37:13.079Z,22.88
2022-10-21T03:39:40.414Z,22.77
2022-10-21T03:42:07.773Z,23.73
2022-10-21T03:44:36.425Z,24.88
2022-10-21T03:47:03.766Z,25.02
2022-10-21T03:49:31.563Z,26.40
2022-10-21T03:51:58.949Z,25.75
2022-10-21T03:54:26.343Z,27.00
2022-10-21T03:56:53.889Z,27.02
2022-10-21T03:59:21.235Z,26.70
2022-10-21T04:01:50.029Z,26.70
2022-10-21T04:04:17.410Z,23.60
2022-10-21T04:06:44.781Z,24.65
2022-10-21T04:09:12.243Z,26.90
2022-10-21T04:11:39.657Z,21.67
2022-10-21T04:14:10.235Z,26.98
2022-10-21T04:16:40.412Z,24.67
2022-10-21T04:19:09.207Z,26.73
2022-10-21T04:21:36.560Z,26.20
2022-10-21T04:24:04.483Z,25.17
2022-10-21T04:26:31.808Z,29.55
2022-10-21T04:28:59.137Z,23.70
2022-10-21T04:31:29.865Z,28.35
2022-10-21T04:33:59.429Z,27.13
2022-10-21T04:36:28.080Z,23.88
2022-10-21T04:38:55.417Z,26.20
2022-10-21T04:41:22.764Z,25.52
2022-10-21T04:43:50.090Z,27.85
2022-10-21T04:46:17.463Z,26.85
2022-10-21T04:48:44.912Z,25.85
2022-10-21T04:51:12.263Z,24.08
2022-10-21T04:53:40.904Z,24.40
2022-10-21T04:56:08.547Z,24.15
2022-10-21T04:58:35.888Z,30.27
2022-10-21T05:01:03.499Z,25.55
2022-10-21T05:03:30.918Z,26.25
2022-10-21T05:05:58.280Z,23.63
2022-10-21T05:08:25.684Z,22.58
2022-10-21T05:11:00.097Z,26.92
2022-10-21T05:13:27.446Z,27.02
2022-10-21T05:15:58.733Z,24.83
2022-10-21T05:18:26.076Z,32.03
2022-10-21T05:20:54.312Z,28.38
2022-10-21T05:23:21.817Z,28.42
2022-10-21T05:25:50.518Z,28.10
2022-10-21T05:28:19.587Z,30.02
2022-10-21T05:30:47.247Z,27.33
2022-10-21T05:33:15.134Z,25.60
2022-10-21T05:35:42.483Z,24.15
2022-10-21T05:38:09.836Z,24.08
2022-10-21T05:40:37.170Z,26.73
2022-10-21T05:43:04.557Z,27.20
2022-10-21T05:45:33.201Z,22.75
2022-10-21T05:48:00.521Z,28.67
2022-10-21T05:50:27.863Z,22.42
2022-10-21T05:52:58.598Z,29.67
2022-10-21T05:55:26.119Z,22.98
2022-10-21T05:57:53.469Z,27.58
2022-10-21T06:00:20.906Z,26.60
2022-10-21T06:02:49.568Z,24.17
2022-10-21T06:05:17.020Z,26.15
2022-10-21T06:07:44.359Z,28.73
2022-10-21T06:10:12.326Z,33.83
2022-10-21T06:12:40.021Z,30.58
2022-10-21T06:15:08.376Z,26.38
2022-10-21T06:17:35.887Z,30.67
2022-10-21T06:20:05.469Z,32.15
2022-10-21T06:22:32.858Z,29.23
2022-10-21T06:25:00.223Z,29.25
2022-10-21T06:27:27.568Z,34.78
2022-10-21T06:29:54.934Z,28.85
2022-10-21T06:32:22.258Z,31.65
2022-10-21T06:34:49.585Z,28.65
2022-10-21T06:37:18.346Z,39.80
2022-10-21T06:39:45.677Z,33.53
2022-10-21T06:42:14.893Z,31.17
2022-10-21T06:44:44.834Z,37.30
2022-10-21T06:47:12.187Z,35.42
2022-10-21T06:49:39.517Z,34.30
2022-10-21T06:52:06.859Z,27.58
2022-10-21T06:54:35.516Z,28.20
2022-10-21T06:57:02.881Z,34.60
2022-10-21T06:59:30.492Z,32.08
2022-10-21T07:02:00.692Z,29.90
2022-10-21T07:04:28.827Z,27.23
2022-10-21T07:06:56.205Z,32.70
2022-10-21T07:09:23.626Z,25.20
2022-10-21T07:11:52.326Z,31.25
2022-10-21T07:14:19.692Z,26.40
2022-10-21T07:16:47.153Z,23.80
2022-10-21T07:19:14.930Z,24.70
2022-10-21T07:21:42.290Z,29.40
2022-10-21T07:24:10.888Z,26.50
2022-10-21T07:26:38.240Z,24.88
2022-10-21T07:29:07.035Z,19.80
2022-10-21T07:31:37.451Z,27.05
2022-10-21T07:34:07.081Z,21.80
2022-10-21T07:36:36.802Z,26.30
2022-10-21T07:39:07.489Z,25.30
2022-10-21T07:41:37.164Z,27.35
2022-10-21T07:44:06.848Z,24.23
2022-10-21T07:46:35.528Z,22.15
2022-10-21T07:49:02.861Z,21.65
2022-10-21T07:51:31.404Z,22.15
2022-10-21T07:54:00.697Z,24.40
2022-10-21T07:56:29.932Z,20.88
2022-10-21T07:58:57.584Z,25.08
2022-10-21T08:01:26.423Z,23.20
2022-10-21T08:03:54.406Z,21.75
2022-10-21T08:06:22.765Z,22.05
2022-10-21T08:08:50.232Z,29.25
2022-10-21T08:11:22.269Z,20.38
2022-10-21T08:13:49.635Z,30.10
2022-10-21T08:16:17.105Z,22.77
2022-10-21T08:18:45.940Z,33.22
2022-10-21T08:21:13.477Z,25.45
2022-10-21T08:23:40.823Z,29.38
2022-10-21T08:26:10.634Z,28.92
2022-10-21T08:28:38.035Z,27.95
2022-10-21T08:31:06.290Z,22.98
2022-10-21T08:33:33.636Z,22.27
2022-10-21T08:36:06.044Z,22.00
2022-10-21T08:38:33.412Z,22.83
2022-10-21T08:41:01.648Z,23.23
2022-10-21T08:43:31.149Z,22.05
2022-10-21T08:46:02.207Z,26.65
2022-10-21T08:48:32.392Z,25.50
2022-10-21T08:51:01.951Z,19.98
2022-10-21T08:53:33.558Z,22.50
2022-10-21T08:56:03.857Z,24.33
2022-10-21T08:58:31.396Z,20.98
2022-10-21T09:01:03.220Z,23.08
2022-10-21T09:03:38.170Z,22.85
2022-10-21T09:06:21.232Z,26.02
2022-10-21T09:08:59.923Z,24.02
2022-10-21T09:11:35.168Z,28.17
2022-10-21T09:14:14.286Z,31.25
2022-10-21T09:16:47.856Z,23.20
2022-10-21T09:19:24.022Z,24.65
2022-10-21T09:22:29.647Z,19.95
2022-10-21T09:24:56.687Z,22.88
2022-10-21T09:27:32.290Z,21.35
2022-10-21T09:30:15.937Z,20.77
2022-10-21T09:32:49.588Z,17.60
2022-10-21T09:35:23.948Z,20.25
2022-10-21T09:37:55.673Z,16.00
2022-10-21T09:40:24.673Z,22.50
2022-10-21T09:42:55.617Z,18.23
2022-10-21T09:45:27.627Z,17.42
2022-10-21T09:47:58.198Z,19.52
2022-10-21T09:50:26.957Z,19.30
2022-10-21T09:52:59.066Z,18.10
2022-10-21T09:55:26.739Z,23.30
2022-10-21T09:57:57.142Z,17.38
2022-10-21T10:00:41.861Z,17.52
2022-10-21T10:03:09.767Z,21.23
2022-10-21T10:05:39.395Z,22.77
2022-10-21T10:08:25.588Z,17.30
2022-10-21T10:10:53.156Z,21.38
2022-10-21T10:13:24.226Z,18.08
2022-10-21T10:15:51.631Z,18.48
2022-10-21T10:18:22.953Z,17.88
2022-10-21T10:21:05.321Z,16.88
2022-10-21T10:23:43.918Z,18.52
2022-10-21T10:26:12.971Z,18.08
2022-10-21T10:31:08.892Z,16.63
2022-10-21T10:33:36.768Z,20.88
2022-10-21T10:36:09.408Z,16.98
2022-10-21T10:38:42.553Z,14.27
2022-10-21T10:41:12.207Z,13.30
2022-10-21T10:43:46.218Z,16.52
2022-10-21T10:46:24.051Z,15.18
2022-10-21T10:48:53.183Z,14.98
2022-10-21T10:51:25.848Z,14.68
2022-10-21T10:54:17.531Z,18.63
2022-10-21T10:56:49.605Z,13.00
2022-10-21T10:59:23.589Z,11.40
2022-10-21T11:01:54.499Z,12.00
2022-10-21T11:04:26.482Z,15.45
2022-10-21T11:06:57.548Z,14.50
2022-10-21T11:09:27.523Z,13.18
2022-10-21T11:11:56.278Z,11.52
2022-10-21T11:14:23.632Z,18.45
2022-10-21T11:17:01.654Z,12.52
2022-10-21T11:19:36.764Z,15.00
2022-10-21T11:22:13.499Z,17.40
2022-10-21T11:24:55.626Z,20.23
2022-10-21T11:27:55.337Z,18.83
2022-10-21T11:30:24.125Z,16.63
2022-10-21T11:33:01.642Z,14.88
2022-10-21T11:35:35.303Z,14.75
2022-10-21T11:38:20.116Z,12.10
2022-10-21T11:40:50.235Z,17.30
2022-10-21T11:43:27.900Z,17.95
2022-10-21T11:46:00.916Z,17.83
2022-10-21T11:48:37.550Z,14.63
2022-10-21T11:51:14.271Z,14.85
2022-10-21T11:53:56.185Z,19.92
2022-10-21T11:56:29.160Z,13.73
2022-10-21T11:59:05.300Z,12.43
2022-10-21T12:01:38.804Z,13.73
2022-10-21T12:04:24.382Z,14.63
2022-10-21T12:07:02.471Z,13.85
2022-10-21T12:09:31.823Z,14.70
2022-10-21T12:12:05.849Z,21.00
2022-10-21T12:14:35.235Z,13.68
2022-10-21T12:17:04.300Z,18.55
2022-10-21T12:19:31.839Z,15.05
2022-10-21T12:21:59.440Z,16.50
2022-10-21T12:24:36.498Z,15.90
2022-10-21T12:27:10.765Z,17.40
2022-10-21T12:29:50.665Z,16.75
2022-10-21T12:32:23.648Z,17.52
2022-10-21T12:34:51.006Z,15.73
2022-10-21T12:38:01.277Z,16.10
2022-10-21T12:40:37.334Z,20.90
2022-10-21T12:43:07.675Z,18.52
2022-10-21T12:45:36.775Z,18.02
2022-10-21T12:48:08.091Z,19.05
2022-10-21T12:50:35.783Z,14.88
2022-10-21T12:53:14.432Z,17.30
2022-10-21T12:55:42.316Z,18.05
2022-10-21T12:58:23.907Z,18.80
2022-10-21T13:00:56.711Z,16.80
2022-10-21T13:03:56.005Z,19.92
2022-10-21T13:06:51.814Z,18.33
2022-10-21T13:09:37.578Z,15.43
2022-10-21T13:12:15.642Z,16.13
2022-10-21T13:14:45.324Z,15.23
2022-10-21T13:17:49.783Z,15.38
2022-10-21T13:20:46.522Z,16.80
2022-10-21T13:23:41.318Z,13.77
2022-10-21T13:26:19.318Z,17.38
2022-10-21T13:28:57.669Z,16.20
2022-10-21T13:31:25.080Z,19.55
2022-10-21T13:33:53.546Z,16.02
2022-10-21T13:39:19.032Z,21.13
2022-10-21T13:41:46.456Z,18.23
2022-10-21T13:44:27.329Z,17.17
2022-10-21T13:46:54.635Z,16.20
2022-10-21T13:49:30.061Z,15.55
2022-10-21T13:51:59.157Z,21.83
2022-10-21T13:54:26.584Z,23.98
2022-10-21T13:56:53.912Z,15.60
2022-10-21T13:59:25.950Z,16.92
2022-10-21T14:01:55.071Z,15.55
2022-10-21T14:04:24.768Z,15.27
2022-10-21T14:06:54.135Z,16.67
2022-10-21T14:09:25.132Z,19.70
2022-10-21T14:11:54.098Z,15.77
2022-10-21T14:14:24.071Z,21.23
2022-10-21T14:16:54.081Z,17.60
2022-10-21T14:19:23.412Z,14.40
2022-10-21T14:21:53.737Z,14.63
2022-10-21T14:24:29.426Z,20.58
2022-10-21T14:26:57.564Z,23.20
2022-10-21T14:29:28.012Z,18.95
2022-10-21T14:31:55.448Z,18.17
2022-10-21T14:34:23.661Z,20.75
2022-10-21T14:37:01.476Z,18.85
2022-10-21T14:39:30.470Z,17.40
2022-10-21T14:42:02.987Z,17.83
2022-10-21T14:44:31.314Z,23.38
2022-10-21T14:46:59.477Z,15.32
2022-10-21T14:49:29.456Z,24.42
2022-10-21T14:52:01.801Z,21.30
2022-10-21T14:54:38.664Z,20.25
2022-10-21T14:57:06.131Z,19.13
2022-10-21T14:59:39.343Z,18.15
2022-10-21T15:02:07.026Z,13.90
2022-10-21T15:04:51.091Z,17.42
2022-10-21T15:10:16.127Z,19.30
2022-10-21T15:12:44.685Z,16.95
2022-10-21T15:15:54.450Z,21.63
2022-10-21T15:18:23.579Z,16.85
2022-10-21T15:20:56.821Z,24.60
2022-10-21T15:23:27.961Z,20.70
2022-10-21T15:26:00.734Z,28.08
2022-10-21T15:28:30.554Z,27.90
2022-10-21T15:30:59.452Z,20.92
2022-10-21T15:33:27.180Z,22.50
2022-10-21T15:36:01.858Z,21.25
2022-10-21T15:38:29.201Z,17.08
2022-10-21T15:40:57.884Z,19.58
2022-10-21T15:43:25.211Z,19.73
2022-10-21T15:45:52.596Z,24.75
2022-10-21T15:48:19.985Z,18.98
2022-10-21T15:50:47.363Z,23.75
2022-10-21T15:53:14.697Z,20.33
2022-10-21T15:55:42.939Z,18.33
2022-10-21T15:58:11.802Z,17.45
2022-10-21T16:00:40.948Z,22.90
2022-10-21T16:03:08.544Z,23.65
2022-10-21T16:05:36.008Z,21.35
2022-10-21T16:08:03.380Z,21.00
2022-10-21T16:10:34.274Z,22.63
2022-10-21T16:13:01.965Z,23.58
2022-10-21T16:15:30.676Z,20.55
2022-10-21T16:17:58.519Z,23.30
2022-10-21T16:20:28.542Z,21.20
2022-10-21T16:22:59.198Z,22.05
2022-10-21T16:25:29.453Z,23.63
2022-10-21T16:27:56.994Z,25.08
2022-10-21T16:30:26.536Z,22.85
2022-10-21T16:32:55.349Z,23.05
2022-10-21T16:35:22.712Z,22.73
2022-10-21T16:37:50.735Z,22.83
2022-10-21T16:40:21.304Z,24.33
2022-10-21T16:42:49.237Z,23.98
2022-10-21T16:45:17.157Z,30.00
2022-10-21T16:47:48.173Z,28.00
2022-10-21T16:50:20.850Z,30.95
2022-10-21T16:52:48.202Z,33.08
2022-10-21T16:55:16.451Z,32.20
2022-10-21T16:57:43.924Z,24.33
2022-10-21T17:00:12.897Z,27.42
2022-10-21T17:02:40.690Z,25.83
2022-10-21T17:05:09.066Z,29.42
2022-10-21T17:07:38.105Z,32.17
2022-10-21T17:10:06.388Z,29.73
2022-10-21T17:12:34.675Z,29.50
2022-10-21T17:15:02.463Z,34.20
2022-10-21T17:17:29.912Z,33.92
2022-10-21T17:19:57.277Z,30.95
2022-10-21T17:22:24.720Z,35.08
2022-10-21T17:24:53.399Z,42.70
2022-10-21T17:27:21.515Z,41.20
2022-10-21T17:29:48.851Z,40.20
2022-10-21T17:32:16.204Z,37.13
2022-10-21T17:34:43.541Z,36.72
2022-10-21T17:37:12.079Z,41.05
2022-10-21T17:39:40.846Z,33.50
2022-10-21T17:42:10.564Z,36.58
2022-10-21T17:44:37.909Z,40.20
2022-10-21T17:47:05.253Z,39.63
2022-10-21T17:49:32.578Z,37.67
2022-10-21T17:52:00.008Z,40.15
2022-10-21T17:54:29.262Z,37.95
2022-10-21T17:56:58.205Z,39.20
2022-10-21T17:59:27.106Z,49.22
2022-10-21T18:01:54.472Z,62.47
2022-10-21T18:04:21.812Z,49.70
2022-10-21T18:06:49.187Z,46.15
2022-10-21T18:09:16.655Z,43.67
2022-10-21T18:11:44.223Z,45.33
2022-10-21T18:14:11.567Z,46.72
2022-10-21T18:16:41.149Z,46.80
2022-10-21T18:19:08.494Z,48.60
2022-10-21T18:21:35.852Z,50.05
2022-10-21T18:24:03.217Z,46.20
2022-10-21T18:26:31.949Z,50.55
2022-10-21T18:29:00.992Z,50.67
2022-10-21T18:31:30.395Z,52.22
2022-10-21T18:34:00.555Z,52.65
2022-10-21T18:36:28.476Z,52.28
2022-10-21T18:38:56.279Z,47.05
2022-10-21T18:41:23.762Z,46.85
2022-10-21T18:43:53.446Z,46.90
2022-10-21T18:46:22.338Z,44.47
2022-10-21T18:48:50.198Z,48.47
2022-10-21T18:51:19.680Z,43.85
2022-10-21T18:53:49.970Z,37.90
2022-10-21T18:56:20.679Z,41.72
2022-10-21T18:58:48.155Z,41.42
2022-10-21T19:01:15.808Z,40.97
2022-10-21T19:03:43.280Z,38.90
2022-10-21T19:06:20.348Z,39.17
2022-10-21T19:08:48.011Z,38.50
2022-10-21T19:11:15.375Z,29.95
2022-10-21T19:13:42.694Z,32.03
2022-10-21T19:16:10.067Z,30.65
2022-10-21T19:18:38.330Z,27.05
2022-10-21T19:21:06.044Z,27.10
2022-10-21T19:23:34.707Z,26.50
2022-10-21T19:26:03.312Z,25.98
2022-10-21T19:28:30.978Z,28.55
2022-10-21T19:30:58.655Z,27.02
2022-10-21T19:33:26.389Z,29.73
2022-10-21T19:35:53.987Z,30.23
2022-10-21T19:38:39.592Z,25.67
2022-10-21T19:41:11.904Z,26.38
2022-10-21T19:43:39.448Z,28.10
2022-10-21T19:46:07.927Z,28.42
2022-10-21T19:48:36.780Z,27.27
2022-10-21T19:51:04.766Z,27.08
2022-10-21T19:53:33.173Z,27.55
2022-10-21T19:56:02.396Z,28.98
2022-10-21T19:58:32.003Z,31.42
2022-10-21T20:01:03.276Z,37.35
2022-10-21T20:03:30.821Z,38.85
2022-10-21T20:05:58.261Z,32.78
2022-10-21T20:11:01.091Z,32.22
2022-10-21T20:13:30.935Z,38.65
2022-10-21T20:15:58.970Z,42.47
2022-10-21T20:18:27.637Z,31.05
2022-10-21T20:20:55.259Z,27.23
2022-10-21T20:23:22.665Z,28.52
2022-10-21T20:25:51.004Z,31.38
2022-10-21T20:28:18.369Z,60.63
2022-10-21T20:30:56.149Z,40.00
2022-10-21T20:33:23.496Z,45.03
2022-10-21T20:35:50.961Z,34.00
2022-10-21T20:38:18.484Z,35.15
2022-10-21T20:40:45.873Z,33.38
2022-10-21T20:43:13.489Z,43.13
2022-10-21T20:45:40.832Z,54.47
2022-10-21T20:48:09.514Z,35.63
2022-10-21T20:50:36.850Z,38.55
2022-10-21T20:53:04.209Z,56.33
2022-10-21T20:55:31.684Z,109.32
2022-10-21T20:57:59.048Z,93.75
2022-10-21T21:00:26.372Z,57.33
2022-10-21T21:02:53.713Z,79.80
2022-10-21T21:05:22.428Z,70.10
2022-10-21T21:07:49.818Z,68.78
2022-10-21T21:10:17.217Z,77.05
2022-10-21T21:12:44.560Z,67.60
2022-10-21T21:15:11.997Z,92.78
2022-10-21T21:17:39.319Z,78.82
2022-10-21T21:20:07.949Z,57.05
2022-10-21T21:22:37.889Z,50.50
2022-10-21T21:25:06.556Z,47.33
2022-10-21T21:27:33.900Z,49.38
2022-10-21T21:30:01.275Z,43.10
2022-10-21T21:32:28.756Z,48.90
2022-10-21T21:34:56.271Z,44.70
2022-10-21T21:37:24.019Z,50.05
2022-10-21T21:39:53.055Z,47.63
2022-10-21T21:42:20.391Z,48.83
2022-10-21T21:44:47.885Z,49.50
2022-10-21T21:47:15.208Z,42.67
2022-10-21T21:49:42.537Z,47.78
2022-10-21T21:52:09.864Z,42.55
2022-10-21T21:54:37.208Z,41.97
2022-10-21T21:59:53.219Z,42.70
2022-10-21T22:02:20.539Z,43.05
2022-10-21T22:04:47.879Z,46.35
2022-10-21T22:07:15.255Z,47.00
2022-10-21T22:09:42.574Z,46.08
2022-10-21T22:12:14.426Z,46.95
2022-10-21T22:14:42.522Z,40.85
2022-10-21T22:17:09.869Z,41.45
2022-10-21T22:19:37.488Z,38.22
2022-10-21T22:22:05.009Z,40.50
2022-10-21T22:27:06.189Z,38.65
2022-10-21T22:29:35.141Z,37.40
2022-10-21T22:32:02.486Z,44.53
2022-10-21T22:34:29.841Z,40.35
2022-10-21T22:36:57.174Z,43.75
2022-10-21T22:39:25.525Z,44.45
2022-10-21T22:41:52.920Z,39.60
2022-10-21T22:44:21.988Z,46.80
2022-10-21T22:46:50.898Z,45.33
2022-10-21T22:49:18.364Z,46.55
2022-10-21T22:51:45.730Z,44.33
2022-10-21T22:54:29.637Z,43.67
2022-10-21T22:57:01.190Z,54.95
2022-10-21T22:59:28.549Z,52.75
2022-10-21T23:01:57.240Z,47.78
2022-10-21T23:04:24.573Z,50.50
2022-10-21T23:06:51.923Z,45.53
2022-10-21T23:09:19.502Z,46.72
2022-10-21T23:11:47.343Z,44.28
2022-10-21T23:14:14.678Z,53.00
2022-10-21T23:16:42.030Z,45.65
2022-10-21T23:21:43.037Z,45.00
2022-10-21T23:24:10.424Z,43.95
2022-10-21T23:26:37.865Z,41.83
2022-10-21T23:29:05.331Z,46.35
2022-10-21T23:31:32.673Z,39.13
2022-10-21T23:34:00.063Z,40.65
2022-10-21T23:36:28.726Z,40.60
2022-10-21T23:38:56.386Z,36.20
2022-10-21T23:41:24.184Z,38.28
2022-10-21T23:43:51.519Z,42.38
2022-10-21T23:46:18.909Z,34.95
2022-10-21T23:48:46.276Z,37.72
2022-10-21T23:51:13.683Z,60.08
2022-10-21T23:53:42.346Z,37.42
2022-10-21T23:56:09.702Z,42.17
2022-10-21T23:58:37.028Z,41.03
